Time;durP1;ratioP1;P1;durP2;ratioP2;P2;SDS_P1;SDS_P2;PMS_P1;PMS_P2;Temp;Humidity;BMP_temperature;BMP_pressure;BME280_temperature;BME280_humidity;BME280_pressure;Samples;Min_cycle;Max_cycle;Signal;HPM_P1;HPM_P2
2022/05/26 00:00:09;;;;;;;3.85;1.08;;;14.20;99.90;;;;;;5053768;28;20082;-84
2022/05/26 00:02:35;;;;;;;4.05;0.80;;;14.20;99.90;;;;;;5054268;28;20040;-84
2022/05/26 00:05:00;;;;;;;2.83;1.00;;;14.20;99.90;;;;;;5054323;28;20055;-85
2022/05/26 00:07:26;;;;;;;4.47;0.90;;;14.20;99.90;;;;;;5054184;28;20029;-85
2022/05/26 00:09:52;;;;;;;3.63;0.90;;;14.20;99.90;;;;;;5071212;28;20036;-84
2022/05/26 00:12:19;;;;;;;2.47;0.88;;;14.20;99.90;;;;;;5054051;28;20035;-84
2022/05/26 00:14:45;;;;;;;2.45;0.82;;;14.20;99.90;;;;;;5054255;28;20074;-84
2022/05/26 00:17:11;;;;;;;3.80;1.05;;;14.20;99.90;;;;;;5053804;28;20032;-85
2022/05/26 00:19:36;;;;;;;6.03;1.08;;;14.20;99.90;;;;;;5053171;28;20059;-84
2022/05/26 00:22:03;;;;;;;1.73;0.80;;;14.20;99.90;;;;;;5054119;28;20415;-85
2022/05/26 00:24:28;;;;;;;3.15;1.15;;;14.20;99.90;;;;;;5054042;28;20032;-84
2022/05/26 00:26:54;;;;;;;1.42;0.90;;;14.10;99.90;;;;;;5054136;28;20032;-85
2022/05/26 00:29:20;;;;;;;4.70;1.45;;;14.10;99.90;;;;;;5071158;28;20020;-85
2022/05/26 00:31:46;;;;;;;4.43;1.00;;;14.10;99.90;;;;;;5057707;28;20031;-84
2022/05/26 00:34:12;;;;;;;2.50;1.10;;;14.10;99.90;;;;;;5057544;28;20128;-84
2022/05/26 00:36:37;;;;;;;3.35;0.85;;;14.10;99.90;;;;;;5058138;28;20036;-84
2022/05/26 00:39:07;;;;;;;4.53;1.00;;;14.10;99.90;;;;;;5076246;28;20567;-84
2022/05/26 00:41:33;;;;;;;3.60;0.93;;;14.10;99.90;;;;;;5074222;28;20063;-84
2022/05/26 00:43:59;;;;;;;4.82;1.00;;;14.00;99.90;;;;;;5074574;28;20028;-84
2022/05/26 00:46:37;;;;;;;4.60;1.00;;;14.00;99.90;;;;;;5074456;28;20032;-84
2022/05/26 00:49:03;;;;;;;14.38;6.10;;;14.00;99.90;;;;;;5074378;28;20024;-84
2022/05/26 00:51:33;;;;;;;4.32;1.40;;;13.90;99.90;;;;;;5057395;28;20032;-84
2022/05/26 00:54:07;;;;;;;2.03;0.80;;;13.90;99.90;;;;;;5057590;28;20043;-84
2022/05/26 00:57:08;;;;;;;1.95;1.00;;;13.90;99.90;;;;;;5057469;28;20644;-84
2022/05/26 00:59:58;;;;;;;1.67;0.90;;;13.80;99.90;;;;;;5016141;28;20473;-85
2022/05/26 01:02:33;;;;;;;3.13;0.95;;;13.80;99.90;;;;;;5057403;28;20036;-84
2022/05/26 01:05:07;;;;;;;2.15;1.20;;;13.80;99.90;;;;;;5057441;28;20037;-84
2022/05/26 01:07:37;;;;;;;4.07;1.30;;;13.70;99.90;;;;;;5074401;28;20059;-84
2022/05/26 01:10:04;;;;;;;5.60;1.30;;;13.70;99.90;;;;;;5073777;28;20388;-84
2022/05/26 01:12:29;;;;;;;5.88;1.45;;;13.70;99.90;;;;;;5057089;28;20300;-84
2022/05/26 01:15:04;;;;;;;3.33;1.10;;;13.60;99.90;;;;;;5057539;28;20078;-84
2022/05/26 01:17:43;;;;;;;2.50;0.95;;;13.60;99.90;;;;;;5073820;28;20035;-84
2022/05/26 01:20:42;;;;;;;4.32;1.60;;;13.70;99.90;;;;;;5056978;28;20476;-85
2022/05/26 01:23:28;;;;;;;4.78;2.13;;;13.70;99.90;;;;;;5075391;28;20785;-84
2022/05/26 01:26:27;;;;;;;2.90;1.40;;;13.60;99.90;;;;;;5057462;28;20063;-84
2022/05/26 01:28:59;;;;;;;4.00;1.85;;;13.60;99.90;;;;;;5074304;28;20039;-84
2022/05/26 01:31:43;;;;;;;2.33;1.27;;;13.60;99.90;;;;;;5056864;28;20031;-84
2022/05/26 01:34:20;;;;;;;4.88;1.70;;;13.50;99.90;;;;;;5057058;28;20037;-84
2022/05/26 01:37:04;;;;;;;5.97;1.92;;;13.50;99.90;;;;;;5057007;28;20033;-83
2022/05/26 01:39:44;;;;;;;6.30;1.63;;;13.50;99.90;;;;;;5072814;28;20044;-84
2022/05/26 01:42:22;;;;;;;4.57;0.98;;;13.40;99.90;;;;;;5055548;28;20060;-84
2022/05/26 01:44:59;;;;;;;4.55;1.40;;;13.40;99.90;;;;;;5072910;28;20040;-84
2022/05/26 01:47:31;;;;;;;1.92;1.05;;;13.50;99.90;;;;;;5073085;28;20036;-83
2022/05/26 01:50:01;;;;;;;;;;;13.40;99.90;;;;;;5072904;28;20777;-84
2022/05/26 01:52:37;;;;;;;9.18;1.30;;;13.40;99.90;;;;;;5056244;28;20322;-84
2022/05/26 01:55:17;;;;;;;6.57;1.48;;;13.40;99.90;;;;;;5056016;28;20418;-84
2022/05/26 01:57:45;;;;;;;1.40;0.93;;;13.40;99.90;;;;;;5056245;28;20032;-84
2022/05/26 02:00:14;;;;;;;2.53;1.05;;;13.30;99.90;;;;;;5055920;28;20024;-85
2022/05/26 02:02:51;;;;;;;3.03;1.40;;;13.30;99.90;;;;;;5072997;28;20039;-84
2022/05/26 02:05:26;;;;;;;4.28;1.35;;;13.30;99.90;;;;;;5056443;28;20119;-84
2022/05/26 02:07:58;;;;;;;2.33;1.10;;;13.30;99.90;;;;;;5056152;28;20032;-84
2022/05/26 02:10:52;;;;;;;2.38;1.00;;;13.30;99.90;;;;;;5056058;28;20117;-84
2022/05/26 02:13:29;;;;;;;3.30;1.13;;;13.20;99.90;;;;;;5064335;28;20495;-84
2022/05/26 02:16:03;;;;;;;3.00;1.05;;;13.20;99.90;;;;;;5055714;28;20043;-84
2022/05/26 02:18:39;;;;;;;5.35;1.35;;;13.20;99.90;;;;;;5055732;28;20064;-84
2022/05/26 02:21:16;;;;;;;8.35;1.30;;;13.20;99.90;;;;;;5055442;28;20506;-84
2022/05/26 02:24:07;;;;;;;5.70;1.13;;;13.10;99.90;;;;;;5089541;28;20052;-84
2022/05/26 02:26:34;;;;;;;2.88;1.20;;;13.10;99.90;;;;;;5080118;28;20054;-84
2022/05/26 02:31:50;;;;;;;5.32;1.35;;;13.20;99.90;;;;;;5072117;28;20028;-85
2022/05/26 02:34:18;;;;;;;5.65;1.17;;;13.20;99.90;;;;;;5055576;28;20665;-85
2022/05/26 02:36:48;;;;;;;3.58;1.15;;;13.20;99.90;;;;;;5071916;28;20475;-84
2022/05/26 02:39:13;;;;;;;3.47;1.27;;;13.10;99.90;;;;;;5055087;28;20068;-83
2022/05/26 02:41:40;;;;;;;1.15;0.90;;;13.10;99.90;;;;;;5054989;28;20076;-84
2022/05/26 02:44:06;;;;;;;3.17;1.25;;;13.10;99.90;;;;;;5054385;28;20032;-84
2022/05/26 02:47:03;;;;;;;2.47;0.90;;;13.10;99.90;;;;;;5055377;28;20059;-83
2022/05/26 02:49:41;;;;;;;5.20;1.30;;;13.00;99.90;;;;;;5055562;28;20032;-83
2022/05/26 02:52:31;;;;;;;2.95;1.20;;;13.00;99.90;;;;;;5055154;28;20055;-84
2022/05/26 02:55:08;;;;;;;1.35;0.93;;;13.00;99.90;;;;;;5055411;28;20047;-84
2022/05/26 02:58:06;;;;;;;5.32;1.20;;;13.00;99.90;;;;;;5055436;28;20032;-84
2022/05/26 03:01:09;;;;;;;1.98;1.20;;;13.00;99.90;;;;;;5071751;28;20032;-84
2022/05/26 03:03:41;;;;;;;2.90;1.30;;;12.90;99.90;;;;;;5031368;28;20040;-83
2022/05/26 03:06:10;;;;;;;3.85;1.08;;;12.90;99.90;;;;;;5054591;28;20032;-84
2022/05/26 03:08:39;;;;;;;6.70;1.17;;;12.80;99.90;;;;;;5071442;28;20399;-84
2022/05/26 03:11:08;;;;;;;7.78;1.33;;;12.80;99.90;;;;;;5054495;28;20051;-83
2022/05/26 03:13:34;;;;;;;5.72;1.30;;;12.80;99.90;;;;;;5054813;28;20035;-84
2022/05/26 03:16:00;;;;;;;2.05;1.17;;;12.80;99.90;;;;;;5054142;28;20028;-84
2022/05/26 03:18:25;;;;;;;1.98;1.10;;;12.90;99.90;;;;;;5054723;28;20074;-84
2022/05/26 03:20:51;;;;;;;2.40;1.20;;;12.90;99.90;;;;;;5070489;28;20021;-84
2022/05/26 03:23:17;;;;;;;2.17;0.90;;;12.90;99.90;;;;;;5071383;28;20063;-83
2022/05/26 03:25:47;;;;;;;3.85;1.60;;;12.90;99.90;;;;;;5054474;28;20491;-84
2022/05/26 03:28:13;;;;;;;3.40;1.30;;;13.00;99.90;;;;;;5088183;28;20480;-84
2022/05/26 03:30:39;;;;;;;5.63;1.52;;;12.90;99.90;;;;;;5054309;28;20035;-82
2022/05/26 03:33:05;;;;;;;2.83;0.93;;;12.90;99.90;;;;;;5054311;28;20028;-82
2022/05/26 03:41:03;;;;;;;3.20;1.15;;;13.00;99.90;;;;;;5059747;28;20094;-81
2022/05/26 03:43:33;;;;;;;2.45;1.00;;;13.00;99.90;;;;;;5071287;28;20029;-82
2022/05/26 03:46:00;;;;;;;3.97;1.10;;;13.00;99.90;;;;;;5072445;28;20036;-82
2022/05/26 03:48:27;;;;;;;3.88;1.15;;;13.00;99.90;;;;;;5071163;28;20025;-82
2022/05/26 03:50:54;;;;;;;3.42;1.30;;;13.00;99.90;;;;;;5053948;28;20187;-81
2022/05/26 03:53:20;;;;;;;10.40;1.17;;;13.10;99.90;;;;;;5054330;28;20036;-82
2022/05/26 03:55:45;;;;;;;3.65;1.08;;;13.10;99.90;;;;;;5054170;28;20070;-81
2022/05/26 03:58:11;;;;;;;6.70;1.17;;;13.10;99.90;;;;;;5054408;28;20039;-81
2022/05/26 04:00:38;;;;;;;3.25;1.20;;;13.00;99.90;;;;;;5071446;28;20024;-82
2022/05/26 04:03:04;;;;;;;2.20;1.17;;;13.00;99.90;;;;;;5054324;28;20122;-82
2022/05/26 04:05:30;;;;;;;7.35;1.23;;;13.00;99.90;;;;;;5057268;28;20064;-82
2022/05/26 04:07:56;;;;;;;6.97;1.30;;;13.00;99.90;;;;;;5091613;28;20059;-81
2022/05/26 04:10:22;;;;;;;2.53;1.23;;;13.00;99.90;;;;;;5074512;28;20082;-82
2022/05/26 04:12:47;;;;;;;4.63;1.30;;;13.00;99.90;;;;;;5058178;28;20066;-81
2022/05/26 04:15:15;;;;;;;3.05;1.10;;;13.00;99.90;;;;;;5057988;28;20602;-81
2022/05/26 04:17:41;;;;;;;2.05;1.30;;;13.00;99.90;;;;;;5058410;28;20043;-81
2022/05/26 04:20:10;;;;;;;27.67;15.60;;;13.00;99.90;;;;;;5057897;28;20033;-82
2022/05/26 04:22:36;;;;;;;11.95;5.70;;;13.00;99.90;;;;;;5074954;28;20106;-81
2022/05/26 04:25:03;;;;;;;5.32;1.10;;;13.00;99.90;;;;;;5057290;28;20480;-83
2022/05/26 04:27:31;;;;;;;30.23;2.70;;;13.00;99.90;;;;;;5075006;28;20021;-81
2022/05/26 04:29:57;;;;;;;2.85;1.30;;;13.00;99.90;;;;;;5074374;28;20488;-82
2022/05/26 04:32:25;;;;;;;5.45;1.25;;;13.00;99.90;;;;;;5075805;28;20027;-81
2022/05/26 04:34:51;;;;;;;2.63;0.98;;;13.00;99.90;;;;;;5074865;28;20090;-82
2022/05/26 04:37:19;;;;;;;5.60;1.20;;;13.10;99.90;;;;;;5074448;28;20032;-82
2022/05/26 04:40:11;;;;;;;3.67;1.48;;;13.10;99.90;;;;;;5073884;28;20093;-81
2022/05/26 04:42:38;;;;;;;4.90;1.05;;;13.10;99.90;;;;;;5057101;28;20082;-82
2022/05/26 04:45:06;;;;;;;2.53;0.98;;;13.10;99.90;;;;;;5057155;28;20460;-82
2022/05/26 04:47:32;;;;;;;6.15;1.38;;;13.10;99.90;;;;;;5057264;28;20545;-82
2022/05/26 04:49:58;;;;;;;2.13;1.08;;;13.10;99.90;;;;;;5056000;28;20016;-82
2022/05/26 04:52:25;;;;;;;5.57;1.55;;;13.10;99.90;;;;;;5073536;28;20515;-82
2022/05/26 04:54:54;;;;;;;4.85;1.20;;;13.10;99.90;;;;;;5057087;28;20058;-82
2022/05/26 04:57:23;;;;;;;13.15;1.65;;;13.10;99.90;;;;;;5073557;28;20043;-82
2022/05/26 04:59:49;;;;;;;4.35;0.95;;;13.10;99.90;;;;;;5057300;28;20044;-82
2022/05/26 05:02:56;;;;;;;4.68;1.00;;;13.20;99.90;;;;;;5056300;28;20051;-82
2022/05/26 05:05:34;;;;;;;2.95;1.13;;;13.20;99.90;;;;;;5057071;28;20070;-82
2022/05/26 05:08:00;;;;;;;1.50;1.20;;;13.20;99.90;;;;;;5073430;28;20391;-82
2022/05/26 05:10:25;;;;;;;2.95;1.08;;;13.10;99.90;;;;;;5054998;28;20028;-82
2022/05/26 05:12:54;;;;;;;3.55;1.08;;;13.20;99.90;;;;;;5072964;28;20017;-82
2022/05/26 05:15:30;;;;;;;3.13;1.10;;;13.20;99.90;;;;;;5055527;28;20039;-82
2022/05/26 05:17:56;;;;;;;6.38;1.40;;;13.30;99.90;;;;;;5073180;28;20032;-82
2022/05/26 05:20:22;;;;;;;2.28;1.10;;;13.30;99.90;;;;;;5054779;28;20059;-82
2022/05/26 05:22:53;;;;;;;3.03;1.27;;;13.40;99.90;;;;;;5073553;28;20068;-82
2022/05/26 05:25:26;;;;;;;5.43;1.55;;;13.40;99.90;;;;;;5057079;28;20067;-82
2022/05/26 05:27:58;;;;;;;1.92;1.15;;;13.60;99.90;;;;;;5073835;28;20028;-81
2022/05/26 05:30:54;;;;;;;;;;;13.60;99.90;;;;;;5056523;28;20070;-82
2022/05/26 05:33:28;;;;;;;2.00;1.13;;;13.60;99.90;;;;;;5056308;28;20392;-82
2022/05/26 05:35:56;;;;;;;3.95;1.30;;;13.60;99.90;;;;;;5072551;28;20617;-82
2022/05/26 05:38:22;;;;;;;3.55;1.20;;;13.60;99.90;;;;;;5056436;28;20123;-82
2022/05/26 05:40:48;;;;;;;2.60;1.08;;;13.60;99.90;;;;;;5056459;28;20051;-82
2022/05/26 05:43:14;;;;;;;3.38;0.95;;;13.40;99.90;;;;;;5056080;28;20036;-82
2022/05/26 05:45:52;;;;;;;3.88;1.17;;;13.40;99.90;;;;;;5073113;28;20107;-82
2022/05/26 05:48:20;;;;;;;5.00;1.30;;;13.50;99.90;;;;;;5056270;28;20028;-82
2022/05/26 05:50:46;;;;;;;5.43;1.40;;;13.50;99.90;;;;;;5072662;28;20044;-82
2022/05/26 05:53:12;;;;;;;2.65;1.90;;;13.70;99.90;;;;;;5056605;28;20055;-83
2022/05/26 05:55:38;;;;;;;1.98;1.20;;;13.70;99.90;;;;;;5055727;28;20036;-82
2022/05/26 05:58:07;;;;;;;1.30;0.90;;;13.70;99.90;;;;;;5055930;28;20082;-82
2022/05/26 06:00:33;;;;;;;3.65;1.20;;;13.70;99.90;;;;;;5055667;28;20377;-82
2022/05/26 06:02:58;;;;;;;1.58;1.00;;;13.80;99.90;;;;;;5055969;28;20116;-83
2022/05/26 06:05:25;;;;;;;3.15;1.20;;;14.10;99.90;;;;;;5054789;28;20074;-82
2022/05/26 06:07:51;;;;;;;2.40;1.20;;;14.40;99.90;;;;;;5071620;28;20036;-82
2022/05/26 06:10:17;;;;;;;6.00;1.30;;;14.40;99.90;;;;;;5055055;28;20028;-82
2022/05/26 06:12:42;;;;;;;1.48;0.98;;;14.50;99.90;;;;;;5055334;28;20024;-83
2022/05/26 06:15:09;;;;;;;3.50;1.10;;;14.60;99.90;;;;;;5071380;28;20032;-82
2022/05/26 06:17:34;;;;;;;2.50;1.10;;;14.80;99.90;;;;;;5071264;28;20119;-82
2022/05/26 06:20:01;;;;;;;3.00;1.17;;;14.80;99.90;;;;;;5072253;28;20070;-82
2022/05/26 06:22:29;;;;;;;3.03;1.02;;;14.90;99.90;;;;;;5071955;28;20071;-82
2022/05/26 06:24:55;;;;;;;4.82;1.15;;;15.00;99.90;;;;;;5055099;28;20601;-82
2022/05/26 06:30:12;;;;;;;3.53;1.33;;;15.00;99.90;;;;;;5071876;28;20071;-82
2022/05/26 06:38:16;;;;;;;3.83;1.50;;;15.50;99.90;;;;;;5072012;28;20132;-83
2022/05/26 06:40:42;;;;;;;4.78;1.15;;;15.50;99.90;;;;;;5054662;28;20039;-83
2022/05/26 06:43:07;;;;;;;2.20;0.90;;;15.30;99.90;;;;;;5073214;28;20352;-82
2022/05/26 06:45:36;;;;;;;4.05;1.15;;;15.20;99.90;;;;;;5055581;28;20700;-81
2022/05/26 06:48:39;;;;;;;3.38;1.15;;;15.30;99.90;;;;;;5055330;28;20090;-82
2022/05/26 06:51:05;;;;;;;2.75;1.15;;;15.60;99.90;;;;;;5071735;28;20042;-82
2022/05/26 06:53:31;;;;;;;2.90;1.10;;;15.70;99.90;;;;;;5071640;28;20097;-83
2022/05/26 06:55:57;;;;;;;9.20;1.20;;;15.60;99.90;;;;;;5054938;28;20039;-83
2022/05/26 06:58:23;;;;;;;4.30;1.40;;;15.50;99.90;;;;;;5071920;28;20430;-82
2022/05/26 07:00:49;;;;;;;8.23;1.40;;;15.20;99.90;;;;;;5054757;28;20064;-82
2022/05/26 07:03:15;;;;;;;1.83;1.00;;;15.00;99.90;;;;;;5053924;28;20687;-82
2022/05/26 07:05:41;;;;;;;1.15;1.02;;;14.90;99.90;;;;;;5071076;28;20082;-83
2022/05/26 07:08:07;;;;;;;3.83;1.10;;;14.80;99.90;;;;;;5054323;28;20044;-82
2022/05/26 07:10:34;;;;;;;6.50;2.25;;;14.80;99.90;;;;;;5054687;28;20553;-82
2022/05/26 07:13:00;;;;;;;4.45;1.55;;;14.70;99.90;;;;;;5070373;28;20608;-83
2022/05/26 07:15:26;;;;;;;4.60;1.38;;;14.70;99.90;;;;;;5054196;28;20028;-83
2022/05/26 07:17:52;;;;;;;7.45;1.90;;;14.70;99.90;;;;;;5069443;28;20054;-82
2022/05/26 07:20:18;;;;;;;2.10;1.35;;;14.70;99.90;;;;;;5054266;28;20468;-83
2022/05/26 07:22:44;;;;;;;5.80;1.48;;;14.60;99.90;;;;;;5054806;28;20067;-83
2022/05/26 07:25:10;;;;;;;2.95;1.35;;;14.50;99.90;;;;;;5054732;28;20068;-82
2022/05/26 07:27:36;;;;;;;7.82;1.08;;;14.50;99.90;;;;;;5054622;28;20036;-82
2022/05/26 07:30:04;;;;;;;5.78;1.85;;;14.60;99.90;;;;;;5088233;28;20028;-82
2022/05/26 07:32:29;;;;;;;2.70;1.50;;;14.90;99.90;;;;;;5071525;28;20508;-82
2022/05/26 07:34:55;;;;;;;4.45;1.38;;;15.20;99.90;;;;;;5072863;28;20120;-83
2022/05/26 07:42:50;;;;;;;3.50;1.15;;;16.00;99.90;;;;;;5071291;28;20086;-82
2022/05/26 07:45:17;;;;;;;2.53;1.00;;;16.00;99.90;;;;;;5071209;28;20119;-82
2022/05/26 07:47:43;;;;;;;4.35;1.25;;;16.40;99.90;;;;;;5071216;28;20057;-82
2022/05/26 07:50:11;;;;;;;2.75;1.20;;;16.60;99.90;;;;;;5070951;28;20638;-83
2022/05/26 07:52:37;;;;;;;3.10;2.60;;;16.80;99.90;;;;;;5054532;28;20064;-82
2022/05/26 07:55:04;;;;;;;4.85;1.25;;;16.90;99.90;;;;;;5054579;28;20068;-82
2022/05/26 07:57:30;;;;;;;4.93;1.27;;;17.10;99.90;;;;;;5070818;28;20044;-83
2022/05/26 07:59:58;;;;;;;4.47;2.45;;;17.40;99.90;;;;;;5053998;28;20051;-82
2022/05/26 08:02:24;;;;;;;4.95;1.30;;;17.30;99.90;;;;;;5053684;28;20723;-82
2022/05/26 08:04:50;;;;;;;6.32;1.50;;;17.10;99.90;;;;;;5070698;28;20123;-82
2022/05/26 08:07:16;;;;;;;1.77;1.05;;;16.80;99.90;;;;;;5053279;28;20430;-82
2022/05/26 08:09:42;;;;;;;2.25;1.10;;;16.70;99.90;;;;;;5070596;28;20504;-82
2022/05/26 08:12:11;;;;;;;2.70;1.70;;;16.60;99.90;;;;;;5070584;28;20055;-81
2022/05/26 08:14:37;;;;;;;4.70;1.30;;;16.40;99.90;;;;;;5054287;28;20063;-82
2022/05/26 08:17:03;;;;;;;5.72;1.75;;;16.10;99.90;;;;;;5054475;28;20067;-82
2022/05/26 08:19:29;;;;;;;3.55;1.45;;;15.60;99.90;;;;;;5072088;28;20032;-82
2022/05/26 08:21:55;;;;;;;4.40;1.70;;;15.40;99.90;;;;;;5072051;28;20796;-82
2022/05/26 08:24:37;;;;;;;3.58;1.48;;;15.50;99.90;;;;;;5053513;28;20099;-83
2022/05/26 08:27:03;;;;;;;8.57;1.55;;;15.60;99.90;;;;;;5054117;28;20375;-82
2022/05/26 08:29:28;;;;;;;3.55;1.90;;;15.70;99.90;;;;;;5070801;28;20480;-83
2022/05/26 08:31:54;;;;;;;4.47;1.92;;;15.50;99.90;;;;;;5070434;28;20036;-82
2022/05/26 08:34:20;;;;;;;8.02;1.65;;;15.10;99.90;;;;;;5070637;28;20078;-83
2022/05/26 08:36:46;;;;;;;7.30;1.70;;;15.50;99.90;;;;;;5054111;28;20028;-83
2022/05/26 08:39:13;;;;;;;4.90;1.63;;;15.90;99.90;;;;;;5070707;28;20034;-83
2022/05/26 08:41:49;;;;;;;4.10;1.77;;;16.00;99.90;;;;;;5054109;28;20033;-83
2022/05/26 08:44:31;;;;;;;6.70;1.40;;;16.30;99.90;;;;;;5053701;28;20037;-83
2022/05/26 08:47:08;;;;;;;3.22;1.60;;;16.50;99.90;;;;;;5053839;28;20036;-83
2022/05/26 08:49:39;;;;;;;7.80;1.80;;;16.90;99.90;;;;;;5051102;28;20081;-82
2022/05/26 08:52:11;;;;;;;;;;;17.10;99.90;;;;;;5075285;28;20037;-83
2022/05/26 08:54:39;;;;;;;;;;;17.40;99.90;;;;;;5057693;28;19908;-82
2022/05/26 08:57:11;;;;;;;4.57;1.30;;;17.80;99.90;;;;;;5073373;28;19916;-82
2022/05/26 08:59:42;;;;;;;6.82;1.77;;;17.70;99.90;;;;;;5074345;28;20068;-83
2022/05/26 09:02:24;;;;;;;8.48;1.90;;;17.90;99.90;;;;;;5056960;28;20029;-82
2022/05/26 09:04:50;;;;;;;5.20;1.40;;;18.10;99.90;;;;;;5073927;28;20395;-83
2022/05/26 09:13:13;;;;;;;4.00;1.10;;;17.50;99.90;;;;;;5073973;28;20039;-82
2022/05/26 09:15:39;;;;;;;1.55;1.10;;;17.40;99.90;;;;;;5073788;28;20467;-82
2022/05/26 09:18:12;;;;;;;4.88;1.38;;;17.50;99.90;;;;;;5073660;28;20040;-82
2022/05/26 09:20:40;;;;;;;2.45;1.27;;;17.90;99.90;;;;;;5073591;28;20369;-82
2022/05/26 09:23:27;;;;;;;7.05;2.13;;;18.10;99.90;;;;;;5073673;28;20036;-82
2022/05/26 09:25:52;;;;;;;5.07;1.92;;;18.10;99.90;;;;;;5074965;28;20032;-82
2022/05/26 09:28:27;;;;;;;5.35;2.63;;;18.60;99.90;;;;;;5073030;28;20025;-82
2022/05/26 09:30:53;;;;;;;7.70;2.40;;;18.90;99.90;;;;;;5072701;28;20025;-83
2022/05/26 09:33:27;;;;;;;7.05;3.75;;;19.00;99.90;;;;;;5056530;28;20084;-83
2022/05/26 09:35:53;;;;;;;6.07;1.90;;;18.80;99.90;;;;;;5073281;28;20040;-83
2022/05/26 09:38:21;;;;;;;5.05;2.13;;;18.70;99.90;;;;;;5056539;28;20045;-82
2022/05/26 09:40:48;;;;;;;2.47;1.38;;;18.70;99.90;;;;;;5073070;28;20028;-83
2022/05/26 09:43:17;;;;;;;4.55;1.77;;;18.20;99.90;;;;;;5056198;28;20075;-82
2022/05/26 09:46:10;;;;;;;4.90;1.60;;;17.70;99.90;;;;;;5055342;28;20449;-83
2022/05/26 09:48:37;;;;;;;6.35;1.60;;;17.30;99.90;;;;;;5073155;28;20116;-82
2022/05/26 09:51:20;;;;;;;2.60;1.38;;;17.50;99.90;;;;;;5071102;28;20028;-83
2022/05/26 09:53:46;;;;;;;3.42;1.40;;;17.70;99.90;;;;;;5055945;28;20093;-82
2022/05/26 09:56:31;;;;;;;2.63;1.45;;;18.00;99.90;;;;;;5055757;28;20494;-82
2022/05/26 09:58:57;;;;;;;5.25;1.50;;;18.10;99.90;;;;;;5073044;28;20024;-82
2022/05/26 10:01:23;;;;;;;5.20;1.38;;;18.00;99.90;;;;;;5054237;28;20740;-82
2022/05/26 10:04:11;;;;;;;2.10;1.33;;;17.70;99.90;;;;;;5055883;28;20036;-82
2022/05/26 10:06:45;;;;;;;4.90;1.63;;;17.40;99.90;;;;;;5055688;28;20391;-82
2022/05/26 10:09:16;;;;;;;2.70;1.50;;;17.30;99.90;;;;;;5055881;28;20085;-82
2022/05/26 10:11:48;;;;;;;;;;;17.50;99.90;;;;;;5055431;28;20777;-82
2022/05/26 10:17:54;;;;;;;5.50;3.03;;;17.70;99.90;;;;;;5072150;28;20037;-82
2022/05/26 10:20:44;;;;;;;8.05;2.88;;;18.10;99.90;;;;;;5072513;28;20055;-82
2022/05/26 10:23:19;;;;;;;5.05;1.40;;;18.50;99.90;;;;;;5054987;28;20036;-82
2022/05/26 10:26:00;;;;;;;4.45;1.15;;;18.80;99.90;;;;;;5055767;28;20400;-82
2022/05/26 10:28:45;;;;;;;3.33;1.33;;;19.20;99.90;;;;;;5073232;28;20028;-82
2022/05/26 10:31:18;;;;;;;2.67;1.30;;;19.60;99.90;;;;;;5071966;28;20090;-82
2022/05/26 10:34:05;;;;;;;4.80;1.60;;;19.40;99.90;;;;;;5072082;28;20471;-82
2022/05/26 10:36:54;;;;;;;4.20;1.33;;;19.00;99.90;;;;;;5055234;28;20020;-82
2022/05/26 10:39:43;;;;;;;3.65;1.65;;;18.30;99.90;;;;;;5046833;28;20047;-82
2022/05/26 10:42:23;;;;;;;2.88;1.38;;;17.70;99.90;;;;;;5071882;28;20119;-82
2022/05/26 10:45:09;;;;;;;5.90;1.60;;;17.40;99.90;;;;;;5055662;28;20032;-82
2022/05/26 10:47:42;;;;;;;4.63;1.92;;;17.40;99.90;;;;;;5055369;28;20244;-83
2022/05/26 10:50:10;;;;;;;4.65;1.73;;;17.20;99.90;;;;;;5055431;28;20032;-82
2022/05/26 10:53:18;;;;;;;3.38;1.67;;;17.00;99.90;;;;;;5069230;28;20103;-82
2022/05/26 10:55:57;;;;;;;3.30;1.52;;;17.10;99.90;;;;;;5055026;28;20066;-83
2022/05/26 10:58:54;;;;;;;2.05;1.48;;;17.00;99.90;;;;;;5070833;28;20039;-83
2022/05/26 11:01:31;;;;;;;6.00;1.40;;;17.20;99.90;;;;;;5054089;28;20147;-82
2022/05/26 11:04:08;;;;;;;5.65;1.50;;;17.80;99.90;;;;;;5055132;28;20396;-82
2022/05/26 11:06:38;;;;;;;2.47;1.58;;;18.10;99.90;;;;;;5055095;28;20032;-82
2022/05/26 11:09:13;;;;;;;3.10;1.40;;;18.20;99.90;;;;;;5072079;28;20119;-82
2022/05/26 11:11:44;;;;;;;3.15;1.80;;;18.20;99.90;;;;;;5070950;28;20108;-82
2022/05/26 11:17:22;;;;;;;3.83;1.27;;;18.30;99.90;;;;;;5071437;28;20047;-83
2022/05/26 11:20:03;;;;;;;6.65;1.70;;;18.30;99.90;;;;;;5071446;28;20480;-82
2022/05/26 11:22:30;;;;;;;4.07;1.45;;;18.40;99.90;;;;;;5054483;28;20028;-82
2022/05/26 11:24:58;;;;;;;2.90;1.45;;;18.60;99.90;;;;;;5071287;28;20033;-82
2022/05/26 11:27:38;;;;;;;3.60;1.50;;;18.80;99.90;;;;;;5054244;28;20028;-82
2022/05/26 11:36:07;;;;;;;4.82;1.48;;;19.00;99.90;;;;;;5054223;28;20492;-82
2022/05/26 11:38:49;;;;;;;2.33;1.33;;;19.80;99.90;;;;;;5029846;28;20124;-82
2022/05/26 11:41:25;;;;;;;;;;;20.10;99.90;;;;;;5030640;28;20033;-83
2022/05/26 11:44:00;;;;;;;7.38;1.88;;;19.90;99.90;;;;;;5045152;28;19909;-82
2022/05/26 11:46:47;;;;;;;3.13;1.33;;;19.30;99.90;;;;;;5072318;28;20106;-82
2022/05/26 11:49:43;;;;;;;5.70;1.30;;;19.40;99.90;;;;;;5069809;28;20037;-83
2022/05/26 11:56:06;;;;;;;2.25;1.63;;;18.80;99.90;;;;;;5072566;28;20036;-83
2022/05/26 11:58:41;;;;;;;2.90;1.20;;;17.80;99.90;;;;;;5053634;28;20504;-83
2022/05/26 12:01:19;;;;;;;2.95;1.60;;;17.20;99.90;;;;;;5070453;28;20036;-82
2022/05/26 12:03:54;;;;;;;4.15;1.70;;;16.80;99.90;;;;;;5070965;28;20076;-83
2022/05/26 12:06:42;;;;;;;2.83;1.63;;;16.60;99.90;;;;;;5070420;28;20071;-82
2022/05/26 12:09:32;;;;;;;3.53;1.45;;;16.60;99.90;;;;;;5071262;28;20033;-82
2022/05/26 12:12:07;;;;;;;3.65;1.52;;;16.70;99.90;;;;;;5054114;28;20902;-82
2022/05/26 12:14:43;;;;;;;3.33;1.10;;;17.00;99.90;;;;;;5054345;28;20033;-82
2022/05/26 12:17:32;;;;;;;3.70;2.58;;;17.40;99.90;;;;;;5070413;28;20094;-82
2022/05/26 12:20:03;;;;;;;3.10;2.03;;;17.60;99.90;;;;;;5053844;28;20105;-83
2022/05/26 12:22:32;;;;;;;6.63;1.70;;;17.70;99.90;;;;;;5054107;28;20029;-83
2022/05/26 12:25:24;;;;;;;4.07;1.70;;;17.60;99.90;;;;;;5054530;28;20826;-82
2022/05/26 12:27:54;;;;;;;5.78;1.35;;;17.10;99.90;;;;;;5057634;28;20024;-82
2022/05/26 12:30:44;;;;;;;3.30;1.88;;;16.90;99.90;;;;;;5058066;28;20028;-82
2022/05/26 12:34:02;;;;;;;2.80;1.50;;;17.00;99.90;;;;;;5074621;28;20028;-82
2022/05/26 12:36:56;;;;;;;2.85;1.33;;;17.10;99.90;;;;;;5013767;28;20690;-82
2022/05/26 12:39:47;;;;;;;3.10;1.73;;;17.10;99.90;;;;;;5074509;28;20032;-82
2022/05/26 12:42:44;;;;;;;2.53;1.30;;;17.30;99.90;;;;;;5055553;28;20040;-83
2022/05/26 12:45:25;;;;;;;3.40;1.70;;;17.30;99.90;;;;;;5029314;28;20812;-82
2022/05/26 12:48:21;;;;;;;1.73;1.20;;;17.20;99.90;;;;;;5057600;28;20060;-81
2022/05/26 12:50:47;;;;;;;3.13;1.25;;;17.30;99.90;;;;;;5057032;28;20040;-81
2022/05/26 12:53:28;;;;;;;3.63;1.52;;;17.40;99.90;;;;;;5057205;28;20381;-82
2022/05/26 12:56:03;;;;;;;3.28;1.20;;;17.60;99.90;;;;;;5056780;28;20120;-83
2022/05/26 13:02:28;;;;;;;4.00;1.40;;;17.90;99.90;;;;;;5075672;28;20586;-83
2022/05/26 13:04:55;;;;;;;2.65;1.48;;;18.40;99.90;;;;;;5073912;28;20411;-83
2022/05/26 13:07:21;;;;;;;1.98;1.42;;;18.60;99.90;;;;;;5057250;28;20598;-82
2022/05/26 13:09:51;;;;;;;1.33;1.20;;;18.40;99.90;;;;;;5074298;28;20039;-83
2022/05/26 13:12:25;;;;;;;3.05;1.58;;;19.20;99.90;;;;;;5073886;28;20063;-82
2022/05/26 13:14:56;;;;;;;4.65;2.05;;;19.70;99.90;;;;;;5074176;28;20115;-82
2022/05/26 13:17:27;;;;;;;1.48;1.30;;;20.10;99.90;;;;;;5057107;28;20059;-84
2022/05/26 13:19:56;;;;;;;3.05;1.20;;;19.90;99.90;;;;;;5073951;28;20043;-83
2022/05/26 13:22:30;;;;;;;4.53;1.50;;;19.60;99.90;;;;;;5056810;28;20036;-83
2022/05/26 13:25:23;;;;;;;3.15;1.27;;;19.80;99.90;;;;;;5056445;28;20037;-83
2022/05/26 13:28:05;;;;;;;3.42;1.33;;;19.90;99.90;;;;;;5074005;28;20430;-83
2022/05/26 13:33:49;;;;;;;3.38;1.20;;;20.10;99.90;;;;;;5073868;28;20127;-83
2022/05/26 13:36:19;;;;;;;2.85;1.40;;;21.80;99.90;;;;;;5073220;28;20070;-83
2022/05/26 13:38:48;;;;;;;2.30;1.20;;;22.40;99.90;;;;;;5068836;28;20065;-83
2022/05/26 13:41:20;;;;;;;2.75;1.27;;;22.90;99.90;;;;;;5056699;28;20142;-82
2022/05/26 13:43:47;;;;;;;;;;;23.50;99.90;;;;;;5057018;28;20041;-81
2022/05/26 13:46:25;;;;;;;2.20;1.20;;;23.80;99.90;;;;;;5073306;28;20008;-84
2022/05/26 13:48:59;;;;;;;2.47;1.58;;;23.30;99.90;;;;;;5073288;28;20035;-84
2022/05/26 13:51:40;;;;;;;3.28;1.48;;;22.50;99.90;;;;;;5073038;28;20040;-83
2022/05/26 13:54:29;;;;;;;4.97;1.50;;;22.00;99.90;;;;;;5056276;28;20040;-82
2022/05/26 13:57:02;;;;;;;3.45;1.30;;;22.10;99.90;;;;;;5056145;28;20433;-82
2022/05/26 13:59:33;;;;;;;2.30;1.30;;;21.70;99.90;;;;;;5073025;28;20036;-81
2022/05/26 14:02:19;;;;;;;2.75;1.25;;;21.60;99.90;;;;;;5055781;28;20037;-81
2022/05/26 14:05:01;;;;;;;61.25;40.15;;;21.20;99.90;;;;;;5056055;28;20695;-81
2022/05/26 14:07:34;;;;;;;130.57;65.03;;;20.90;99.90;;;;;;5072496;28;20056;-81